sensor_id;sensor_type;location;lat;lon;timestamp;pressure;altitude;pressure_sealevel;temperature;humidity
77793;BME280;66983;51.438;5.438;2023-06-22T00:02:16;101713.00;;;21.39;57.94
77793;BME280;66983;51.438;5.438;2023-06-22T00:04:42;101713.22;;;21.36;58.25
77793;BME280;66983;51.438;5.438;2023-06-22T00:07:08;101719.97;;;21.30;59.02
77793;BME280;66983;51.438;5.438;2023-06-22T00:09:34;101722.78;;;21.29;59.46
77793;BME280;66983;51.438;5.438;2023-06-22T00:11:59;101722.13;;;21.25;59.87
77793;BME280;66983;51.438;5.438;2023-06-22T00:14:25;101723.31;;;21.21;59.09
77793;BME280;66983;51.438;5.438;2023-06-22T00:16:50;101720.78;;;21.18;60.16
77793;BME280;66983;51.438;5.438;2023-06-22T00:19:21;101730.75;;;21.18;59.32
77793;BME280;66983;51.438;5.438;2023-06-22T00:21:47;101723.59;;;21.17;60.04
77793;BME280;66983;51.438;5.438;2023-06-22T00:24:19;101722.63;;;21.18;59.02
77793;BME280;66983;51.438;5.438;2023-06-22T00:26:44;101720.97;;;21.15;59.39
77793;BME280;66983;51.438;5.438;2023-06-22T00:29:10;101720.97;;;21.15;60.17
77793;BME280;66983;51.438;5.438;2023-06-22T00:31:36;101719.25;;;21.14;60.21
77793;BME280;66983;51.438;5.438;2023-06-22T00:34:01;101716.44;;;21.16;60.18
77793;BME280;66983;51.438;5.438;2023-06-22T00:36:27;101712.94;;;21.14;60.35
77793;BME280;66983;51.438;5.438;2023-06-22T00:38:52;101708.41;;;21.14;60.66
77793;BME280;66983;51.438;5.438;2023-06-22T00:41:18;101715.34;;;21.18;60.90
77793;BME280;66983;51.438;5.438;2023-06-22T00:43:44;101706.06;;;21.22;61.72
77793;BME280;66983;51.438;5.438;2023-06-22T00:46:11;101698.91;;;21.21;61.62
77793;BME280;66983;51.438;5.438;2023-06-22T00:48:37;101696.94;;;21.23;61.33
77793;BME280;66983;51.438;5.438;2023-06-22T00:51:02;101699.66;;;21.23;61.56
77793;BME280;66983;51.438;5.438;2023-06-22T00:53:28;101700.22;;;21.28;61.71
77793;BME280;66983;51.438;5.438;2023-06-22T00:55:55;101702.81;;;21.30;61.36
77793;BME280;66983;51.438;5.438;2023-06-22T00:58:21;101701.72;;;21.32;61.78
77793;BME280;66983;51.438;5.438;2023-06-22T01:00:48;101702.69;;;21.31;61.59
77793;BME280;66983;51.438;5.438;2023-06-22T01:03:14;101704.88;;;21.26;62.10
77793;BME280;66983;51.438;5.438;2023-06-22T01:05:42;101699.97;;;21.31;61.97
77793;BME280;66983;51.438;5.438;2023-06-22T01:08:23;101700.75;;;21.33;62.07
77793;BME280;66983;51.438;5.438;2023-06-22T01:11:17;101702.69;;;21.31;62.38
77793;BME280;66983;51.438;5.438;2023-06-22T01:14:04;101697.41;;;21.30;62.53
77793;BME280;66983;51.438;5.438;2023-06-22T01:16:35;101695.22;;;21.35;61.80
77793;BME280;66983;51.438;5.438;2023-06-22T01:19:14;101702.59;;;21.33;63.02
77793;BME280;66983;51.438;5.438;2023-06-22T01:21:45;101698.28;;;21.30;62.61
77793;BME280;66983;51.438;5.438;2023-06-22T01:30:08;101708.47;;;21.27;62.62
77793;BME280;66983;51.438;5.438;2023-06-22T01:32:38;101704.97;;;21.25;62.48
77793;BME280;66983;51.438;5.438;2023-06-22T01:35:07;101704.13;;;21.24;63.11
77793;BME280;66983;51.438;5.438;2023-06-22T01:37:35;101697.94;;;21.22;63.09
77793;BME280;66983;51.438;5.438;2023-06-22T01:40:02;101703.34;;;21.22;63.49
77793;BME280;66983;51.438;5.438;2023-06-22T01:42:31;101689.31;;;21.16;63.16
77793;BME280;66983;51.438;5.438;2023-06-22T01:44:59;101689.22;;;21.17;62.53
77793;BME280;66983;51.438;5.438;2023-06-22T01:47:27;101688.53;;;21.14;63.13
77793;BME280;66983;51.438;5.438;2023-06-22T01:49:53;101686.91;;;21.11;62.96
77793;BME280;66983;51.438;5.438;2023-06-22T01:52:20;101691.47;;;21.11;63.92
77793;BME280;66983;51.438;5.438;2023-06-22T01:54:48;101699.72;;;21.09;63.53
77793;BME280;66983;51.438;5.438;2023-06-22T01:57:14;101692.66;;;21.07;63.41
77793;BME280;66983;51.438;5.438;2023-06-22T02:00:02;101698.84;;;21.09;63.72
77793;BME280;66983;51.438;5.438;2023-06-22T02:02:39;101694.38;;;21.08;63.62
77793;BME280;66983;51.438;5.438;2023-06-22T02:05:09;101691.06;;;21.04;63.94
77793;BME280;66983;51.438;5.438;2023-06-22T02:07:46;101684.97;;;21.00;63.40
77793;BME280;66983;51.438;5.438;2023-06-22T02:10:16;101680.72;;;20.96;63.67
77793;BME280;66983;51.438;5.438;2023-06-22T02:12:45;101679.09;;;20.94;64.32
77793;BME280;66983;51.438;5.438;2023-06-22T02:15:13;101681.69;;;20.95;63.61
77793;BME280;66983;51.438;5.438;2023-06-22T02:17:40;101688.88;;;20.96;64.22
77793;BME280;66983;51.438;5.438;2023-06-22T02:20:14;101688.19;;;20.93;64.01
77793;BME280;66983;51.438;5.438;2023-06-22T02:22:41;101693.81;;;20.90;64.44
77793;BME280;66983;51.438;5.438;2023-06-22T02:25:10;101684.06;;;20.87;64.61
77793;BME280;66983;51.438;5.438;2023-06-22T02:27:35;101674.97;;;20.88;64.00
77793;BME280;66983;51.438;5.438;2023-06-22T02:30:01;101679.63;;;20.86;63.93
77793;BME280;66983;51.438;5.438;2023-06-22T02:32:27;101673.22;;;20.87;64.17
77793;BME280;66983;51.438;5.438;2023-06-22T02:34:53;101668.97;;;20.83;64.73
77793;BME280;66983;51.438;5.438;2023-06-22T02:37:18;101672.88;;;20.79;64.93
77793;BME280;66983;51.438;5.438;2023-06-22T02:39:44;101663.03;;;20.78;64.63
77793;BME280;66983;51.438;5.438;2023-06-22T02:42:09;101660.44;;;20.77;65.13
77793;BME280;66983;51.438;5.438;2023-06-22T02:44:38;101656.94;;;20.75;65.07
77793;BME280;66983;51.438;5.438;2023-06-22T02:47:04;101657.94;;;20.74;65.37
77793;BME280;66983;51.438;5.438;2023-06-22T02:49:30;101656.09;;;20.74;65.90
77793;BME280;66983;51.438;5.438;2023-06-22T02:51:57;101655.41;;;20.71;65.08
77793;BME280;66983;51.438;5.438;2023-06-22T02:54:22;101664.72;;;20.66;65.99
77793;BME280;66983;51.438;5.438;2023-06-22T02:56:51;101671.13;;;20.65;66.13
77793;BME280;66983;51.438;5.438;2023-06-22T02:59:17;101661.25;;;20.64;66.11
77793;BME280;66983;51.438;5.438;2023-06-22T03:01:44;101661.34;;;20.63;66.54
77793;BME280;66983;51.438;5.438;2023-06-22T03:04:31;101656.81;;;20.63;66.68
77793;BME280;66983;51.438;5.438;2023-06-22T03:06:57;101641.31;;;20.65;66.54
77793;BME280;66983;51.438;5.438;2023-06-22T03:09:28;101648.69;;;20.63;66.10
77793;BME280;66983;51.438;5.438;2023-06-22T03:11:55;101644.88;;;20.66;65.87
77793;BME280;66983;51.438;5.438;2023-06-22T03:14:22;101643.06;;;20.66;66.34
77793;BME280;66983;51.438;5.438;2023-06-22T03:16:47;101633.19;;;20.65;66.11
77793;BME280;66983;51.438;5.438;2023-06-22T03:19:13;101631.56;;;20.63;66.01
77793;BME280;66983;51.438;5.438;2023-06-22T03:21:39;101628.94;;;20.61;66.25
77793;BME280;66983;51.438;5.438;2023-06-22T03:24:06;101628.19;;;20.59;66.65
77793;BME280;66983;51.438;5.438;2023-06-22T03:26:32;101624.69;;;20.57;66.35
77793;BME280;66983;51.438;5.438;2023-06-22T03:28:57;101625.47;;;20.59;66.51
77793;BME280;66983;51.438;5.438;2023-06-22T03:31:23;101621.13;;;20.57;66.30
77793;BME280;66983;51.438;5.438;2023-06-22T03:33:50;101622.19;;;20.54;66.55
77793;BME280;66983;51.438;5.438;2023-06-22T03:36:17;101615.91;;;20.54;66.21
77793;BME280;66983;51.438;5.438;2023-06-22T03:38:47;101613.53;;;20.49;66.91
77793;BME280;66983;51.438;5.438;2023-06-22T03:41:13;101606.41;;;20.48;66.63
77793;BME280;66983;51.438;5.438;2023-06-22T03:43:39;101609.09;;;20.48;66.77
77793;BME280;66983;51.438;5.438;2023-06-22T03:46:05;101603.78;;;20.47;67.01
77793;BME280;66983;51.438;5.438;2023-06-22T03:48:31;101604.75;;;20.46;66.93
77793;BME280;66983;51.438;5.438;2023-06-22T03:50:56;101617.44;;;20.45;66.88
77793;BME280;66983;51.438;5.438;2023-06-22T03:53:22;101615.69;;;20.44;67.17
77793;BME280;66983;51.438;5.438;2023-06-22T03:55:49;101616.88;;;20.40;66.68
77793;BME280;66983;51.438;5.438;2023-06-22T03:58:19;101618.81;;;20.38;67.25
77793;BME280;66983;51.438;5.438;2023-06-22T04:00:46;101626.06;;;20.38;66.87
77793;BME280;66983;51.438;5.438;2023-06-22T04:03:13;101619.78;;;20.37;66.64
77793;BME280;66983;51.438;5.438;2023-06-22T04:05:39;101626.22;;;20.34;67.63
77793;BME280;66983;51.438;5.438;2023-06-22T04:08:05;101622.00;;;20.30;67.41
77793;BME280;66983;51.438;5.438;2023-06-22T04:10:31;101616.47;;;20.32;67.77
77793;BME280;66983;51.438;5.438;2023-06-22T04:12:56;101623.63;;;20.33;67.47
77793;BME280;66983;51.438;5.438;2023-06-22T04:15:22;101607.38;;;20.33;67.46
77793;BME280;66983;51.438;5.438;2023-06-22T04:17:47;101611.94;;;20.32;67.54
77793;BME280;66983;51.438;5.438;2023-06-22T04:20:13;101610.97;;;20.33;67.23
77793;BME280;66983;51.438;5.438;2023-06-22T04:22:39;101618.88;;;20.37;67.87
77793;BME280;66983;51.438;5.438;2023-06-22T04:25:06;101618.00;;;20.36;67.18
77793;BME280;66983;51.438;5.438;2023-06-22T04:27:33;101614.38;;;20.37;68.01
77793;BME280;66983;51.438;5.438;2023-06-22T04:30:06;101616.16;;;20.37;67.63
77793;BME280;66983;51.438;5.438;2023-06-22T04:32:33;101614.44;;;20.36;68.71
77793;BME280;66983;51.438;5.438;2023-06-22T04:34:58;101611.81;;;20.34;67.07
77793;BME280;66983;51.438;5.438;2023-06-22T04:37:26;101617.13;;;20.36;67.62
77793;BME280;66983;51.438;5.438;2023-06-22T04:39:51;101622.38;;;20.39;67.85
77793;BME280;66983;51.438;5.438;2023-06-22T04:42:17;101618.81;;;20.38;67.70
77793;BME280;66983;51.438;5.438;2023-06-22T04:44:43;101617.84;;;20.39;67.86
77793;BME280;66983;51.438;5.438;2023-06-22T04:47:08;101619.69;;;20.39;67.98
77793;BME280;66983;51.438;5.438;2023-06-22T04:49:36;101623.72;;;20.46;67.90
77793;BME280;66983;51.438;5.438;2023-06-22T04:52:10;101618.75;;;20.52;68.14
77793;BME280;66983;51.438;5.438;2023-06-22T04:54:38;101619.28;;;20.57;68.01
77793;BME280;66983;51.438;5.438;2023-06-22T04:57:06;101614.44;;;20.62;66.71
77793;BME280;66983;51.438;5.438;2023-06-22T04:59:37;101615.84;;;20.68;67.84
77793;BME280;66983;51.438;5.438;2023-06-22T05:02:07;101619.31;;;20.70;67.80
77793;BME280;66983;51.438;5.438;2023-06-22T05:04:34;101621.38;;;20.66;67.46
77793;BME280;66983;51.438;5.438;2023-06-22T05:07:02;101619.22;;;20.72;67.43
77793;BME280;66983;51.438;5.438;2023-06-22T05:09:29;101620.53;;;20.79;67.91
77793;BME280;66983;51.438;5.438;2023-06-22T05:11:55;101608.69;;;20.80;68.03
77793;BME280;66983;51.438;5.438;2023-06-22T05:14:22;101615.75;;;20.82;68.01
77793;BME280;66983;51.438;5.438;2023-06-22T05:16:48;101608.50;;;20.83;67.17
77793;BME280;66983;51.438;5.438;2023-06-22T05:19:14;101609.47;;;20.82;68.40
77793;BME280;66983;51.438;5.438;2023-06-22T05:21:39;101603.94;;;20.83;67.99
77793;BME280;66983;51.438;5.438;2023-06-22T05:24:05;101609.25;;;20.85;67.42
77793;BME280;66983;51.438;5.438;2023-06-22T05:26:33;101612.28;;;20.80;68.05
77793;BME280;66983;51.438;5.438;2023-06-22T05:29:00;101614.34;;;20.77;68.07
77793;BME280;66983;51.438;5.438;2023-06-22T05:31:26;101619.78;;;20.77;66.95
77793;BME280;66983;51.438;5.438;2023-06-22T05:33:53;101613.59;;;20.75;68.22
77793;BME280;66983;51.438;5.438;2023-06-22T05:36:19;101605.38;;;20.76;67.80
77793;BME280;66983;51.438;5.438;2023-06-22T05:38:46;101604.50;;;20.76;67.90
77793;BME280;66983;51.438;5.438;2023-06-22T05:41:13;101609.72;;;20.79;68.10
77793;BME280;66983;51.438;5.438;2023-06-22T05:43:39;101609.47;;;20.82;68.00
77793;BME280;66983;51.438;5.438;2023-06-22T05:46:06;101607.41;;;20.85;67.76
77793;BME280;66983;51.438;5.438;2023-06-22T05:48:32;101609.91;;;20.88;68.01
77793;BME280;66983;51.438;5.438;2023-06-22T05:50:58;101611.53;;;20.91;67.80
77793;BME280;66983;51.438;5.438;2023-06-22T05:53:23;101614.69;;;20.97;68.67
77793;BME280;66983;51.438;5.438;2023-06-22T05:55:49;101622.63;;;21.00;67.60
77793;BME280;66983;51.438;5.438;2023-06-22T05:58:15;101611.56;;;21.04;67.58
77793;BME280;66983;51.438;5.438;2023-06-22T06:00:42;101609.25;;;21.10;68.42
77793;BME280;66983;51.438;5.438;2023-06-22T06:03:09;101608.19;;;21.13;67.34
77793;BME280;66983;51.438;5.438;2023-06-22T06:05:36;101606.03;;;21.18;68.10
77793;BME280;66983;51.438;5.438;2023-06-22T06:08:05;101615.72;;;21.22;67.67
77793;BME280;66983;51.438;5.438;2023-06-22T06:10:32;101616.16;;;21.28;66.75
77793;BME280;66983;51.438;5.438;2023-06-22T06:12:58;101621.69;;;21.27;67.35
77793;BME280;66983;51.438;5.438;2023-06-22T06:15:23;101614.19;;;21.30;66.95
77793;BME280;66983;51.438;5.438;2023-06-22T06:17:52;101603.09;;;21.33;67.68
77793;BME280;66983;51.438;5.438;2023-06-22T06:20:22;101608.19;;;21.38;66.88
77793;BME280;66983;51.438;5.438;2023-06-22T06:22:48;101611.66;;;21.40;66.47
77793;BME280;66983;51.438;5.438;2023-06-22T06:25:15;101611.56;;;21.42;68.03
77793;BME280;66983;51.438;5.438;2023-06-22T06:27:49;101608.63;;;21.45;68.13
77793;BME280;66983;51.438;5.438;2023-06-22T06:30:16;101611.13;;;21.48;67.68
77793;BME280;66983;51.438;5.438;2023-06-22T06:32:44;101612.66;;;21.52;67.11
77793;BME280;66983;51.438;5.438;2023-06-22T06:35:11;101612.44;;;21.55;66.86
77793;BME280;66983;51.438;5.438;2023-06-22T06:37:40;101607.72;;;21.57;67.55
77793;BME280;66983;51.438;5.438;2023-06-22T06:40:07;101615.75;;;21.58;67.67
77793;BME280;66983;51.438;5.438;2023-06-22T06:42:40;101611.19;;;21.59;66.80
77793;BME280;66983;51.438;5.438;2023-06-22T06:45:18;101609.13;;;21.62;67.10
77793;BME280;66983;51.438;5.438;2023-06-22T06:47:44;101614.78;;;21.59;67.46
77793;BME280;66983;51.438;5.438;2023-06-22T06:50:10;101614.00;;;21.57;68.01
77793;BME280;66983;51.438;5.438;2023-06-22T06:52:36;101610.97;;;21.62;66.92
77793;BME280;66983;51.438;5.438;2023-06-22T06:55:02;101615.63;;;21.60;68.92
77793;BME280;66983;51.438;5.438;2023-06-22T06:57:30;101614.88;;;21.58;67.29
77793;BME280;66983;51.438;5.438;2023-06-22T06:59:56;101621.28;;;21.57;69.22
77793;BME280;66983;51.438;5.438;2023-06-22T07:02:22;101628.69;;;21.55;69.22
77793;BME280;66983;51.438;5.438;2023-06-22T07:04:48;101627.72;;;21.56;68.78
77793;BME280;66983;51.438;5.438;2023-06-22T07:07:14;101625.44;;;21.50;68.53
77793;BME280;66983;51.438;5.438;2023-06-22T07:09:40;101634.25;;;21.53;69.05
77793;BME280;66983;51.438;5.438;2023-06-22T07:12:06;101632.16;;;21.57;67.78
77793;BME280;66983;51.438;5.438;2023-06-22T07:14:32;101623.28;;;21.55;68.99
77793;BME280;66983;51.438;5.438;2023-06-22T07:16:58;101622.28;;;21.56;68.90
77793;BME280;66983;51.438;5.438;2023-06-22T07:19:25;101618.56;;;21.57;68.11
77793;BME280;66983;51.438;5.438;2023-06-22T07:21:52;101615.25;;;21.53;68.87
77793;BME280;66983;51.438;5.438;2023-06-22T07:24:19;101613.16;;;21.57;69.35
77793;BME280;66983;51.438;5.438;2023-06-22T07:26:47;101596.88;;;21.57;67.79
77793;BME280;66983;51.438;5.438;2023-06-22T07:29:13;101598.16;;;21.64;67.83
77793;BME280;66983;51.438;5.438;2023-06-22T07:31:39;101584.38;;;21.67;68.38
77793;BME280;66983;51.438;5.438;2023-06-22T07:34:06;101572.53;;;21.68;67.34
77793;BME280;66983;51.438;5.438;2023-06-22T07:36:32;101578.72;;;21.70;67.45
77793;BME280;66983;51.438;5.438;2023-06-22T07:38:57;101573.19;;;21.72;67.07
77793;BME280;66983;51.438;5.438;2023-06-22T07:41:23;101577.63;;;21.73;67.22
77793;BME280;66983;51.438;5.438;2023-06-22T07:43:49;101567.97;;;21.68;67.56
77793;BME280;66983;51.438;5.438;2023-06-22T07:46:15;101561.00;;;21.77;69.19
77793;BME280;66983;51.438;5.438;2023-06-22T07:48:40;101553.41;;;21.82;68.73
77793;BME280;66983;51.438;5.438;2023-06-22T07:51:07;101556.38;;;21.90;66.79
77793;BME280;66983;51.438;5.438;2023-06-22T07:53:33;101548.66;;;21.97;67.20
77793;BME280;66983;51.438;5.438;2023-06-22T07:55:58;101541.19;;;22.00;67.24
77793;BME280;66983;51.438;5.438;2023-06-22T07:58:24;101532.69;;;22.05;66.98
77793;BME280;66983;51.438;5.438;2023-06-22T08:00:49;101527.91;;;22.09;67.72
77793;BME280;66983;51.438;5.438;2023-06-22T08:03:15;101517.66;;;22.12;66.33
77793;BME280;66983;51.438;5.438;2023-06-22T08:05:41;101504.94;;;22.13;65.57
77793;BME280;66983;51.438;5.438;2023-06-22T08:08:06;101504.59;;;22.17;66.04
77793;BME280;66983;51.438;5.438;2023-06-22T08:10:32;101497.41;;;22.16;66.11
77793;BME280;66983;51.438;5.438;2023-06-22T08:12:57;101503.47;;;22.20;65.09
77793;BME280;66983;51.438;5.438;2023-06-22T08:15:25;101499.78;;;22.21;66.97
77793;BME280;66983;51.438;5.438;2023-06-22T08:17:51;101493.03;;;22.26;65.85
77793;BME280;66983;51.438;5.438;2023-06-22T08:20:17;101490.81;;;22.31;66.02
77793;BME280;66983;51.438;5.438;2023-06-22T08:22:43;101493.41;;;22.33;66.77
77793;BME280;66983;51.438;5.438;2023-06-22T08:25:10;101491.69;;;22.32;65.88
77793;BME280;66983;51.438;5.438;2023-06-22T08:27:36;101500.81;;;22.31;66.47
77793;BME280;66983;51.438;5.438;2023-06-22T08:30:02;101506.13;;;22.32;65.51
77793;BME280;66983;51.438;5.438;2023-06-22T08:32:28;101506.00;;;22.34;63.69
77793;BME280;66983;51.438;5.438;2023-06-22T08:34:55;101503.16;;;22.35;65.42
77793;BME280;66983;51.438;5.438;2023-06-22T08:37:24;101502.16;;;22.37;64.14
77793;BME280;66983;51.438;5.438;2023-06-22T08:39:59;101492.16;;;22.37;64.41
77793;BME280;66983;51.438;5.438;2023-06-22T08:42:25;101503.16;;;22.35;64.44
77793;BME280;66983;51.438;5.438;2023-06-22T08:44:51;101500.59;;;22.34;64.20
77793;BME280;66983;51.438;5.438;2023-06-22T08:47:16;101493.41;;;22.33;64.99
77793;BME280;66983;51.438;5.438;2023-06-22T08:49:42;101485.97;;;22.35;65.10
77793;BME280;66983;51.438;5.438;2023-06-22T08:52:08;101492.28;;;22.35;65.16
77793;BME280;66983;51.438;5.438;2023-06-22T08:54:33;101480.31;;;22.38;64.15
77793;BME280;66983;51.438;5.438;2023-06-22T08:57:01;101489.22;;;22.40;64.73
77793;BME280;66983;51.438;5.438;2023-06-22T08:59:27;101482.03;;;22.39;64.32
77793;BME280;66983;51.438;5.438;2023-06-22T09:01:52;101476.63;;;22.39;65.85
77793;BME280;66983;51.438;5.438;2023-06-22T09:04:18;101478.09;;;22.43;64.92
77793;BME280;66983;51.438;5.438;2023-06-22T09:06:43;101471.56;;;22.46;65.19
77793;BME280;66983;51.438;5.438;2023-06-22T09:09:12;101469.25;;;22.52;64.68
77793;BME280;66983;51.438;5.438;2023-06-22T09:11:37;101471.59;;;22.57;63.13
77793;BME280;66983;51.438;5.438;2023-06-22T09:14:03;101466.41;;;22.65;62.19
77793;BME280;66983;51.438;5.438;2023-06-22T09:16:29;101468.50;;;22.73;62.08
77793;BME280;66983;51.438;5.438;2023-06-22T09:18:55;101468.69;;;22.82;62.52
77793;BME280;66983;51.438;5.438;2023-06-22T09:21:21;101473.72;;;22.87;62.46
77793;BME280;66983;51.438;5.438;2023-06-22T09:23:46;101467.69;;;22.94;61.02
77793;BME280;66983;51.438;5.438;2023-06-22T09:26:15;101467.31;;;22.99;61.77
77793;BME280;66983;51.438;5.438;2023-06-22T09:28:41;101463.25;;;23.05;61.05
77793;BME280;66983;51.438;5.438;2023-06-22T09:31:06;101472.47;;;23.13;61.78
77793;BME280;66983;51.438;5.438;2023-06-22T09:33:32;101464.81;;;23.18;61.37
77793;BME280;66983;51.438;5.438;2023-06-22T09:35:58;101466.66;;;23.18;61.33
77793;BME280;66983;51.438;5.438;2023-06-22T09:38:23;101464.19;;;23.15;61.48
77793;BME280;66983;51.438;5.438;2023-06-22T09:40:49;101459.63;;;23.15;60.17
77793;BME280;66983;51.438;5.438;2023-06-22T09:43:14;101463.94;;;23.18;60.15
77793;BME280;66983;51.438;5.438;2023-06-22T09:45:40;101454.31;;;23.14;59.24
77793;BME280;66983;51.438;5.438;2023-06-22T09:48:06;101462.13;;;23.07;61.57
77793;BME280;66983;51.438;5.438;2023-06-22T09:50:31;101457.69;;;23.06;59.10
77793;BME280;66983;51.438;5.438;2023-06-22T09:52:57;101453.09;;;23.07;60.49
77793;BME280;66983;51.438;5.438;2023-06-22T09:55:22;101454.22;;;23.04;59.32
77793;BME280;66983;51.438;5.438;2023-06-22T09:57:48;101445.06;;;23.05;60.82
77793;BME280;66983;51.438;5.438;2023-06-22T10:00:16;101454.34;;;23.02;60.56
77793;BME280;66983;51.438;5.438;2023-06-22T10:02:42;101443.22;;;23.06;60.19
77793;BME280;66983;51.438;5.438;2023-06-22T10:05:08;101447.78;;;23.05;59.64
77793;BME280;66983;51.438;5.438;2023-06-22T10:07:34;101451.50;;;23.04;59.39
77793;BME280;66983;51.438;5.438;2023-06-22T10:10:00;101449.66;;;23.05;59.68
77793;BME280;66983;51.438;5.438;2023-06-22T10:12:27;101448.78;;;23.04;62.37
77793;BME280;66983;51.438;5.438;2023-06-22T10:14:53;101450.63;;;23.04;62.36
77793;BME280;66983;51.438;5.438;2023-06-22T10:17:18;101459.53;;;23.06;60.76
77793;BME280;66983;51.438;5.438;2023-06-22T10:19:44;101462.38;;;23.04;61.08
77793;BME280;66983;51.438;5.438;2023-06-22T10:22:09;101456.06;;;23.04;59.82
77793;BME280;66983;51.438;5.438;2023-06-22T10:24:35;101458.03;;;23.01;61.75
77793;BME280;66983;51.438;5.438;2023-06-22T10:27:01;101465.47;;;22.99;60.81
77793;BME280;66983;51.438;5.438;2023-06-22T10:29:26;101470.03;;;22.99;61.55
77793;BME280;66983;51.438;5.438;2023-06-22T10:31:52;101469.28;;;22.97;62.44
77793;BME280;66983;51.438;5.438;2023-06-22T10:34:17;101479.78;;;22.90;64.55
77793;BME280;66983;51.438;5.438;2023-06-22T10:36:43;101477.59;;;22.84;64.86
77793;BME280;66983;51.438;5.438;2023-06-22T10:39:11;101483.50;;;22.78;67.20
77793;BME280;66983;51.438;5.438;2023-06-22T10:41:37;101500.03;;;22.75;68.26
77793;BME280;66983;51.438;5.438;2023-06-22T10:44:02;101504.09;;;22.69;69.01
77793;BME280;66983;51.438;5.438;2023-06-22T10:46:28;101500.13;;;22.62;71.72
77793;BME280;66983;51.438;5.438;2023-06-22T10:48:53;101498.91;;;22.55;71.61
77793;BME280;66983;51.438;5.438;2023-06-22T10:51:24;101499.84;;;22.43;72.70
77793;BME280;66983;51.438;5.438;2023-06-22T10:53:50;101507.97;;;22.32;76.20
77793;BME280;66983;51.438;5.438;2023-06-22T10:56:18;101502.50;;;22.21;75.30
77793;BME280;66983;51.438;5.438;2023-06-22T10:58:44;101502.22;;;22.13;78.12
77793;BME280;66983;51.438;5.438;2023-06-22T11:01:10;101506.09;;;21.97;75.71
77793;BME280;66983;51.438;5.438;2023-06-22T11:03:36;101511.44;;;21.86;76.73
77793;BME280;66983;51.438;5.438;2023-06-22T11:06:01;101509.69;;;21.74;78.59
77793;BME280;66983;51.438;5.438;2023-06-22T11:08:27;101503.19;;;21.64;79.58
77793;BME280;66983;51.438;5.438;2023-06-22T11:10:52;101521.66;;;21.59;80.50
77793;BME280;66983;51.438;5.438;2023-06-22T11:13:18;101522.91;;;21.55;81.78
77793;BME280;66983;51.438;5.438;2023-06-22T11:15:44;101532.69;;;21.45;80.78
77793;BME280;66983;51.438;5.438;2023-06-22T11:18:09;101534.09;;;21.38;82.06
77793;BME280;66983;51.438;5.438;2023-06-22T11:20:35;101520.47;;;21.26;83.77
77793;BME280;66983;51.438;5.438;2023-06-22T11:23:07;101516.88;;;21.13;85.24
77793;BME280;66983;51.438;5.438;2023-06-22T11:25:33;101512.13;;;21.04;84.28
77793;BME280;66983;51.438;5.438;2023-06-22T11:28:02;101528.63;;;21.01;85.34
77793;BME280;66983;51.438;5.438;2023-06-22T11:30:28;101525.16;;;20.99;85.77
77793;BME280;66983;51.438;5.438;2023-06-22T11:32:53;101521.78;;;20.95;87.04
77793;BME280;66983;51.438;5.438;2023-06-22T11:35:19;101498.78;;;20.88;85.89
77793;BME280;66983;51.438;5.438;2023-06-22T11:37:44;101484.06;;;20.80;88.12
77793;BME280;66983;51.438;5.438;2023-06-22T11:40:10;101472.03;;;20.71;87.77
77793;BME280;66983;51.438;5.438;2023-06-22T11:42:36;101463.47;;;20.64;89.07
77793;BME280;66983;51.438;5.438;2023-06-22T11:45:04;101464.88;;;20.57;89.18
77793;BME280;66983;51.438;5.438;2023-06-22T11:47:30;101467.91;;;20.53;89.52
77793;BME280;66983;51.438;5.438;2023-06-22T11:49:56;101463.59;;;20.50;90.06
77793;BME280;66983;51.438;5.438;2023-06-22T11:52:21;101453.53;;;20.52;90.13
77793;BME280;66983;51.438;5.438;2023-06-22T11:54:47;101451.91;;;20.50;90.53
77793;BME280;66983;51.438;5.438;2023-06-22T11:57:13;101446.81;;;20.45;89.20
77793;BME280;66983;51.438;5.438;2023-06-22T11:59:38;101453.41;;;20.41;89.92
77793;BME280;66983;51.438;5.438;2023-06-22T12:02:04;101441.06;;;20.37;89.91
77793;BME280;66983;51.438;5.438;2023-06-22T12:04:31;101432.94;;;20.37;91.71
77793;BME280;66983;51.438;5.438;2023-06-22T12:06:56;101429.78;;;20.43;90.92
77793;BME280;66983;51.438;5.438;2023-06-22T12:09:23;101429.78;;;20.43;90.43
77793;BME280;66983;51.438;5.438;2023-06-22T12:11:49;101435.44;;;20.40;90.55
77793;BME280;66983;51.438;5.438;2023-06-22T12:14:14;101446.25;;;20.40;89.33
77793;BME280;66983;51.438;5.438;2023-06-22T12:16:40;101443.19;;;20.32;89.49
77793;BME280;66983;51.438;5.438;2023-06-22T12:19:06;101427.59;;;20.36;90.88
77793;BME280;66983;51.438;5.438;2023-06-22T12:21:31;101425.75;;;20.36;91.92
77793;BME280;66983;51.438;5.438;2023-06-22T12:23:57;101414.75;;;20.39;91.07
77793;BME280;66983;51.438;5.438;2023-06-22T12:26:22;101415.91;;;20.35;91.23
77793;BME280;66983;51.438;5.438;2023-06-22T12:28:48;101411.44;;;20.34;91.45
77793;BME280;66983;51.438;5.438;2023-06-22T12:31:14;101405.16;;;20.33;90.00
77793;BME280;66983;51.438;5.438;2023-06-22T12:33:40;101407.13;;;20.31;90.56
77793;BME280;66983;51.438;5.438;2023-06-22T12:36:05;101409.41;;;20.25;89.59
77793;BME280;66983;51.438;5.438;2023-06-22T12:38:31;101410.59;;;20.21;89.51
77793;BME280;66983;51.438;5.438;2023-06-22T12:40:56;101407.88;;;20.21;90.28
77793;BME280;66983;51.438;5.438;2023-06-22T12:43:22;101416.78;;;20.23;90.33
77793;BME280;66983;51.438;5.438;2023-06-22T12:45:47;101419.78;;;20.18;90.10
77793;BME280;66983;51.438;5.438;2023-06-22T12:48:13;101400.72;;;20.07;90.21
77793;BME280;66983;51.438;5.438;2023-06-22T12:50:38;101404.41;;;20.06;89.86
77793;BME280;66983;51.438;5.438;2023-06-22T12:53:04;101395.09;;;19.97;89.21
77793;BME280;66983;51.438;5.438;2023-06-22T12:55:31;101385.34;;;19.95;91.04